Time;durP1;ratioP1;P1;durP2;ratioP2;P2;SDS_P1;SDS_P2;PMS_P1;PMS_P2;Temp;Humidity;BMP_temperature;BMP_pressure;BME280_temperature;BME280_humidity;BME280_pressure;Samples;Min_cycle;Max_cycle;Signal;HPM_P1;HPM_P2
2024/01/16 00:00:34;;;;;;;14.33;5.17;;;0.80;99.90;;;;;;5055609;28;20184;-48
2024/01/16 00:03:00;;;;;;;10.33;5.80;;;0.80;99.90;;;;;;5055748;28;20187;-49
2024/01/16 00:05:26;;;;;;;10.27;6.10;;;0.80;99.90;;;;;;5054514;28;20216;-48
2024/01/16 00:07:51;;;;;;;13.60;5.87;;;0.80;99.90;;;;;;5056475;28;20168;-50
2024/01/16 00:10:22;;;;;;;8.87;4.07;;;0.70;99.90;;;;;;5056853;28;20537;-50
2024/01/16 00:12:48;;;;;;;16.40;5.83;;;0.80;99.90;;;;;;5058607;28;20161;-50
2024/01/16 00:15:14;;;;;;;13.00;5.00;;;0.80;99.90;;;;;;5055411;28;20666;-48
2024/01/16 00:17:43;;;;;;;12.23;5.60;;;0.70;99.90;;;;;;5055644;28;20219;-48
2024/01/16 00:20:09;;;;;;;13.30;5.93;;;0.80;99.90;;;;;;5055996;28;20273;-48
2024/01/16 00:22:34;;;;;;;9.37;4.57;;;0.70;99.90;;;;;;5055397;28;20530;-49
2024/01/16 00:25:00;;;;;;;13.03;5.50;;;0.70;99.90;;;;;;5055365;28;20207;-49
2024/01/16 00:27:26;;;;;;;8.47;5.30;;;0.70;99.90;;;;;;5055127;28;20173;-49
2024/01/16 00:29:57;;;;;;;10.10;3.43;;;0.70;99.90;;;;;;5055050;28;20168;-48
2024/01/16 00:32:24;;;;;;;9.57;5.07;;;0.70;99.90;;;;;;5053929;28;20668;-48
2024/01/16 00:34:53;;;;;;;7.43;4.90;;;0.70;99.90;;;;;;5053627;28;20288;-48
2024/01/16 00:37:18;;;;;;;8.43;5.67;;;0.70;99.90;;;;;;5054924;28;20231;-49
2024/01/16 00:39:46;;;;;;;9.93;4.73;;;0.70;99.90;;;;;;5053605;28;20586;-48
2024/01/16 00:42:15;;;;;;;11.00;5.33;;;0.60;99.90;;;;;;5054859;28;20230;-50
2024/01/16 00:44:44;;;;;;;10.40;5.03;;;0.70;99.90;;;;;;5054936;28;20218;-50
2024/01/16 00:47:10;;;;;;;9.60;5.10;;;0.60;99.90;;;;;;5055322;28;20157;-48
2024/01/16 00:49:36;;;;;;;5.23;3.23;;;0.60;99.90;;;;;;5055052;28;20653;-48
2024/01/16 00:52:02;;;;;;;7.63;4.63;;;0.60;99.90;;;;;;5054709;28;20197;-49
2024/01/16 00:54:29;;;;;;;7.40;4.00;;;0.60;99.90;;;;;;5054763;28;20540;-48
2024/01/16 00:56:59;;;;;;;5.53;4.40;;;0.70;99.90;;;;;;5054800;28;20279;-47
2024/01/16 00:59:26;;;;;;;9.00;4.80;;;0.60;99.90;;;;;;5053697;28;20187;-49
2024/01/16 01:01:52;;;;;;;8.03;3.53;;;0.60;99.90;;;;;;5053491;28;20533;-50
2024/01/16 01:04:18;;;;;;;11.30;5.40;;;0.60;99.90;;;;;;5054463;28;20176;-47
2024/01/16 01:06:44;;;;;;;10.00;4.83;;;0.60;99.90;;;;;;5053270;28;20682;-48
2024/01/16 01:09:12;;;;;;;5.40;3.23;;;0.60;99.90;;;;;;5054893;28;20168;-43
2024/01/16 01:11:41;;;;;;;13.57;5.20;;;0.60;99.90;;;;;;5054527;28;20187;-44
2024/01/16 01:14:07;;;;;;;7.03;4.00;;;0.60;99.90;;;;;;5036543;28;20318;-43
2024/01/16 01:16:33;;;;;;;5.07;2.30;;;0.60;99.90;;;;;;5053015;28;20226;-43
2024/01/16 01:18:58;;;;;;;6.97;3.90;;;0.60;99.90;;;;;;5054180;28;20536;-43
2024/01/16 01:21:24;;;;;;;8.13;4.70;;;0.70;99.90;;;;;;5054038;28;20609;-44
2024/01/16 01:23:50;;;;;;;13.47;5.20;;;0.70;99.90;;;;;;5054402;28;20267;-43
2024/01/16 01:26:19;;;;;;;9.73;4.10;;;0.70;99.90;;;;;;5053901;28;20219;-44
2024/01/16 01:28:48;;;;;;;14.10;4.33;;;0.60;99.90;;;;;;5054165;28;20216;-44
2024/01/16 01:31:14;;;;;;;6.60;4.67;;;0.60;99.90;;;;;;5054306;28;20180;-43
2024/01/16 01:33:40;;;;;;;15.87;5.23;;;0.60;99.90;;;;;;5052680;28;20606;-45
2024/01/16 01:36:06;;;;;;;13.30;4.77;;;0.60;99.90;;;;;;5052923;28;20254;-44
2024/01/16 01:38:35;;;;;;;9.07;4.00;;;0.60;99.90;;;;;;5054310;28;20180;-43
2024/01/16 01:41:04;;;;;;;4.67;2.37;;;0.60;99.90;;;;;;5054034;28;20274;-45
2024/01/16 01:43:33;;;;;;;8.87;3.77;;;0.60;99.90;;;;;;5053954;28;20233;-44
2024/01/16 01:46:20;;;;;;;9.43;3.23;;;0.60;99.90;;;;;;5053794;28;20200;-44
2024/01/16 01:48:50;;;;;;;4.83;3.07;;;0.60;99.90;;;;;;5054005;28;20236;-45
2024/01/16 01:51:18;;;;;;;14.73;4.13;;;0.60;99.90;;;;;;5060634;28;20157;-43
2024/01/16 01:53:45;;;;;;;8.13;4.53;;;0.60;99.90;;;;;;5058737;28;20253;-43
2024/01/16 01:56:17;;;;;;;10.10;4.63;;;0.60;99.90;;;;;;5053435;28;20204;-43
2024/01/16 01:58:48;;;;;;;11.23;4.17;;;0.60;99.90;;;;;;5053750;28;20171;-44
2024/01/16 02:01:16;;;;;;;10.33;3.77;;;0.70;99.90;;;;;;5053674;28;20165;-46
2024/01/16 02:03:46;;;;;;;13.13;4.73;;;0.60;99.90;;;;;;5053530;28;20198;-46
2024/01/16 02:06:17;;;;;;;8.03;3.70;;;0.60;99.90;;;;;;5053195;28;20771;-45
2024/01/16 02:08:43;;;;;;;9.20;3.47;;;0.60;99.90;;;;;;5053520;28;20206;-45
2024/01/16 02:11:09;;;;;;;10.33;4.37;;;0.60;99.90;;;;;;5053342;28;20648;-45
2024/01/16 02:13:35;;;;;;;13.67;3.77;;;0.60;99.90;;;;;;5050898;28;20534;-45
2024/01/16 02:16:05;;;;;;;8.97;4.80;;;0.60;99.90;;;;;;5052044;28;20687;-47
2024/01/16 02:18:34;;;;;;;10.57;4.60;;;0.60;99.90;;;;;;5053566;28;20187;-44
2024/01/16 02:21:04;;;;;;;9.10;4.57;;;0.60;99.90;;;;;;5053802;28;20184;-44
2024/01/16 02:23:33;;;;;;;6.83;3.83;;;0.60;99.90;;;;;;5052575;28;20203;-43
2024/01/16 02:25:59;;;;;;;8.57;3.83;;;0.60;99.90;;;;;;5053291;28;20217;-45
2024/01/16 02:28:24;;;;;;;8.73;4.30;;;0.60;99.90;;;;;;5053122;28;20178;-44
2024/01/16 02:30:50;;;;;;;7.63;4.30;;;0.60;99.90;;;;;;5053102;28;20337;-44
2024/01/16 02:33:16;;;;;;;6.80;4.67;;;0.60;99.90;;;;;;5052969;28;20196;-43
2024/01/16 02:35:43;;;;;;;7.77;4.30;;;0.60;99.90;;;;;;5053359;28;20298;-43
2024/01/16 02:38:08;;;;;;;10.27;5.13;;;0.60;99.90;;;;;;5053890;28;20184;-43
2024/01/16 02:40:35;;;;;;;8.97;3.40;;;0.60;99.90;;;;;;5053284;28;20199;-43
2024/01/16 02:43:03;;;;;;;10.87;4.33;;;0.20;99.90;;;;;;5052976;28;20172;-43
2024/01/16 02:45:31;;;;;;;7.40;4.07;;;0.60;99.90;;;;;;5053101;28;20223;-44
2024/01/16 02:47:56;;;;;;;6.40;3.97;;;0.60;99.90;;;;;;5052998;28;20227;-44
2024/01/16 02:50:22;;;;;;;9.37;4.17;;;0.60;99.90;;;;;;5051723;28;20188;-43
2024/01/16 02:52:48;;;;;;;15.87;5.07;;;0.60;99.90;;;;;;5054688;28;20597;-44
2024/01/16 02:55:14;;;;;;;10.17;3.73;;;0.60;99.90;;;;;;5056595;28;20204;-44
2024/01/16 02:57:40;;;;;;;9.57;3.97;;;0.50;99.90;;;;;;5057114;28;20180;-42
2024/01/16 03:00:09;;;;;;;8.03;4.43;;;0.50;99.90;;;;;;5056672;28;20708;-43
2024/01/16 03:02:34;;;;;;;6.27;3.07;;;0.50;99.90;;;;;;5057165;28;20168;-44
2024/01/16 03:05:02;;;;;;;5.63;3.93;;;0.50;99.90;;;;;;5056482;28;20564;-44
2024/01/16 03:07:30;;;;;;;13.40;5.40;;;0.50;99.90;;;;;;5054592;28;20205;-44
2024/01/16 03:09:56;;;;;;;7.87;3.10;;;0.50;99.90;;;;;;5056726;28;20591;-42
2024/01/16 03:12:23;;;;;;;10.07;5.37;;;0.60;99.90;;;;;;5056442;28;20264;-46
2024/01/16 03:14:49;;;;;;;8.40;5.10;;;0.50;99.90;;;;;;5056658;28;20214;-42
2024/01/16 03:17:14;;;;;;;10.97;5.10;;;0.50;99.90;;;;;;5055285;28;20204;-43
2024/01/16 03:19:43;;;;;;;13.13;6.07;;;0.50;99.90;;;;;;5056683;28;20188;-45
2024/01/16 03:22:09;;;;;;;7.67;4.13;;;0.50;99.90;;;;;;5056650;28;20382;-41
2024/01/16 03:24:35;;;;;;;11.47;4.90;;;0.50;99.90;;;;;;5056203;28;20204;-46
2024/01/16 03:27:06;;;;;;;11.53;5.07;;;0.50;99.90;;;;;;5056474;28;20734;-44
2024/01/16 03:29:33;;;;;;;11.80;5.40;;;0.50;99.90;;;;;;5056485;28;20337;-45
2024/01/16 03:32:00;;;;;;;8.53;4.33;;;0.50;99.90;;;;;;5056518;28;20188;-45
2024/01/16 03:34:27;;;;;;;8.53;5.50;;;0.50;99.90;;;;;;5056133;28;20690;-43
2024/01/16 03:36:53;;;;;;;8.00;4.07;;;0.50;99.90;;;;;;5056042;28;20196;-43
2024/01/16 03:39:18;;;;;;;9.47;4.47;;;0.40;99.90;;;;;;5055361;28;20547;-43
2024/01/16 03:41:44;;;;;;;9.57;4.97;;;0.40;99.90;;;;;;5055873;28;20187;-43
2024/01/16 03:44:12;;;;;;;8.37;4.37;;;0.40;99.90;;;;;;5056563;28;20167;-43
2024/01/16 03:46:37;;;;;;;13.20;5.20;;;0.40;99.90;;;;;;5055731;28;20211;-44
2024/01/16 03:49:03;;;;;;;8.07;4.33;;;0.40;99.90;;;;;;5055876;28;20183;-44
2024/01/16 03:51:29;;;;;;;15.17;5.40;;;0.40;99.90;;;;;;5056097;28;20180;-44
2024/01/16 03:53:56;;;;;;;6.20;4.37;;;0.40;99.90;;;;;;5054565;28;20181;-43
2024/01/16 03:56:22;;;;;;;8.87;4.17;;;0.40;99.90;;;;;;5054462;28;20715;-43
2024/01/16 03:58:48;;;;;;;13.43;5.60;;;0.40;99.90;;;;;;5055774;28;20679;-45
2024/01/16 04:01:14;;;;;;;10.17;5.60;;;0.40;99.90;;;;;;5055764;28;20188;-42
2024/01/16 04:03:40;;;;;;;10.40;5.80;;;0.40;99.90;;;;;;5054377;28;20180;-46
2024/01/16 04:06:20;;;;;;;13.47;4.93;;;0.30;99.90;;;;;;5055425;28;20699;-44
2024/01/16 04:08:46;;;;;;;12.77;4.73;;;0.30;99.90;;;;;;5055886;28;20639;-45
2024/01/16 04:11:13;;;;;;;14.63;5.23;;;0.30;99.90;;;;;;5056316;28;20238;-43
2024/01/16 04:13:39;;;;;;;11.50;5.37;;;0.30;99.90;;;;;;5057021;28;20176;-44
2024/01/16 04:16:06;;;;;;;9.27;3.90;;;0.30;99.90;;;;;;5058265;28;20196;-49
2024/01/16 04:18:40;;;;;;;10.60;5.37;;;0.30;99.90;;;;;;5056097;28;20230;-50
2024/01/16 04:21:10;;;;;;;12.07;4.07;;;0.30;99.90;;;;;;5055540;28;20240;-50
2024/01/16 04:23:36;;;;;;;10.00;4.90;;;0.20;99.90;;;;;;5053960;28;20176;-50
2024/01/16 04:26:05;;;;;;;10.33;4.90;;;0.20;99.90;;;;;;5054975;28;20212;-48
2024/01/16 04:28:31;;;;;;;12.87;4.40;;;0.20;99.90;;;;;;5055419;28;20181;-50
2024/01/16 04:30:56;;;;;;;10.17;3.90;;;0.20;99.90;;;;;;5055083;28;20199;-49
2024/01/16 04:33:22;;;;;;;9.63;4.40;;;0.20;99.90;;;;;;5054902;28;20283;-50
2024/01/16 04:35:54;;;;;;;11.63;4.27;;;0.20;99.90;;;;;;5055226;28;20698;-50
2024/01/16 04:38:20;;;;;;;11.37;4.30;;;0.10;99.90;;;;;;5054994;28;20186;-49
2024/01/16 04:40:48;;;;;;;5.30;3.40;;;0.10;99.90;;;;;;5055180;28;20645;-48
2024/01/16 04:43:13;;;;;;;13.17;4.27;;;0.10;99.90;;;;;;5054879;28;20172;-50
2024/01/16 04:45:39;;;;;;;14.27;4.40;;;0.10;99.90;;;;;;5055070;28;20279;-50
2024/01/16 04:48:08;;;;;;;12.43;5.13;;;0.10;99.90;;;;;;5054592;28;20176;-47
2024/01/16 04:50:35;;;;;;;7.13;3.63;;;0.20;99.90;;;;;;5054607;28;20182;-48
2024/01/16 04:53:02;;;;;;;8.13;3.93;;;0.10;99.90;;;;;;5053614;28;20188;-48
2024/01/16 04:55:30;;;;;;;9.67;2.57;;;0.10;99.90;;;;;;5055050;28;20200;-49
2024/01/16 04:57:57;;;;;;;13.77;4.13;;;0.10;99.90;;;;;;5054852;28;20558;-48
2024/01/16 05:00:23;;;;;;;11.27;4.20;;;0.10;99.90;;;;;;5054426;28;20187;-49
2024/01/16 05:02:53;;;;;;;10.93;3.13;;;0.10;99.90;;;;;;5054648;28;20651;-48
2024/01/16 05:05:18;;;;;;;17.17;3.93;;;0.10;99.90;;;;;;5054499;28;20212;-48
2024/01/16 05:07:45;;;;;;;9.27;3.37;;;0.10;99.90;;;;;;5054772;28;20209;-49
2024/01/16 05:10:13;;;;;;;9.13;2.97;;;0.10;99.90;;;;;;5054181;28;20188;-48
2024/01/16 05:12:41;;;;;;;8.40;3.50;;;0.10;99.90;;;;;;5054308;28;20175;-48
2024/01/16 05:15:07;;;;;;;10.70;3.67;;;0.10;99.90;;;;;;5053716;28;20196;-48
2024/01/16 05:17:36;;;;;;;11.57;3.73;;;0.10;99.90;;;;;;5054357;28;20191;-48
2024/01/16 05:20:07;;;;;;;9.07;2.97;;;0.10;99.90;;;;;;5053170;28;20211;-48
2024/01/16 05:22:32;;;;;;;12.07;4.10;;;0.10;99.90;;;;;;5054089;28;20651;-48
2024/01/16 05:25:00;;;;;;;10.27;4.33;;;0.10;99.90;;;;;;5053662;28;20203;-49
2024/01/16 05:27:25;;;;;;;11.60;4.10;;;0.10;99.90;;;;;;5052670;28;20204;-50
2024/01/16 05:30:02;;;;;;;12.43;3.53;;;0.10;99.90;;;;;;5053980;28;20187;-49
2024/01/16 05:32:27;;;;;;;13.37;2.87;;;0.10;99.90;;;;;;5054028;28;20184;-49
2024/01/16 05:34:54;;;;;;;6.30;2.93;;;0.00;99.90;;;;;;5054372;28;20234;-49
2024/01/16 05:37:23;;;;;;;9.83;3.63;;;0.10;99.90;;;;;;5052863;28;20180;-49
2024/01/16 05:39:51;;;;;;;16.20;3.57;;;0.00;99.90;;;;;;5053713;28;20668;-48
2024/01/16 05:42:17;;;;;;;8.47;3.43;;;0.00;99.90;;;;;;5052429;28;20230;-50
2024/01/16 05:44:46;;;;;;;14.60;3.13;;;0.00;99.90;;;;;;5053567;28;20212;-50
2024/01/16 05:47:11;;;;;;;7.17;3.70;;;0.00;99.90;;;;;;5053723;28;20168;-50
2024/01/16 05:49:39;;;;;;;8.80;2.93;;;0.00;99.90;;;;;;5053857;28;20662;-47
2024/01/16 05:52:04;;;;;;;9.57;3.17;;;0.00;99.90;;;;;;5052096;28;20188;-50
2024/01/16 05:54:30;;;;;;;9.07;3.40;;;0.00;99.90;;;;;;5053569;28;20539;-48
2024/01/16 05:56:56;;;;;;;5.37;2.50;;;-0.10;99.90;;;;;;5053412;28;20564;-48
2024/01/16 05:59:21;;;;;;;8.20;2.63;;;-0.10;99.90;;;;;;5052318;28;20186;-50
2024/01/16 06:01:47;;;;;;;11.17;2.83;;;-0.10;99.90;;;;;;5054048;28;20250;-49
2024/01/16 06:04:12;;;;;;;11.33;3.13;;;-0.10;99.90;;;;;;5053467;28;20176;-49
2024/01/16 06:06:45;;;;;;;6.30;2.50;;;-0.10;99.90;;;;;;5054130;28;20211;-49
2024/01/16 06:09:13;;;;;;;9.50;2.97;;;-0.10;99.90;;;;;;5053335;28;20202;-49
2024/01/16 06:11:51;;;;;;;10.70;2.60;;;-0.10;99.90;;;;;;5053602;28;20183;-49
2024/01/16 06:14:21;;;;;;;7.67;2.43;;;-0.10;99.90;;;;;;5053336;28;20179;-49
2024/01/16 06:16:47;;;;;;;13.57;3.07;;;-0.10;99.90;;;;;;5053196;28;20232;-49
2024/01/16 06:19:13;;;;;;;8.57;3.33;;;-0.10;99.90;;;;;;5052082;28;20267;-49
2024/01/16 06:21:39;;;;;;;10.07;2.73;;;-0.10;99.90;;;;;;5052257;28;20222;-49
2024/01/16 06:24:14;;;;;;;9.73;2.43;;;-0.10;99.90;;;;;;5054133;28;20177;-47
2024/01/16 06:26:42;;;;;;;9.07;2.17;;;-0.10;99.90;;;;;;5053870;28;20619;-48
2024/01/16 06:29:07;;;;;;;8.73;2.47;;;-0.10;99.90;;;;;;5057633;28;20178;-49
2024/01/16 06:31:39;;;;;;;10.33;3.57;;;0.00;99.90;;;;;;5057598;28;20255;-48
2024/01/16 06:34:08;;;;;;;12.50;3.13;;;0.00;99.90;;;;;;5056059;28;20214;-49
2024/01/16 06:36:37;;;;;;;10.17;3.00;;;0.00;99.90;;;;;;5057525;28;20199;-49
2024/01/16 06:39:13;;;;;;;9.70;2.80;;;0.00;99.90;;;;;;5057451;28;20179;-50
2024/01/16 06:41:41;;;;;;;6.70;2.40;;;0.00;99.90;;;;;;5058235;28;20257;-49
2024/01/16 06:44:06;;;;;;;13.07;3.10;;;0.00;99.90;;;;;;5057105;28;20651;-48
2024/01/16 06:46:34;;;;;;;7.03;2.50;;;0.00;99.90;;;;;;5057110;28;20250;-48
2024/01/16 06:49:03;;;;;;;9.13;3.37;;;0.00;99.90;;;;;;5055496;28;20196;-48
2024/01/16 06:51:29;;;;;;;9.17;3.23;;;0.00;99.90;;;;;;5056863;28;20184;-48
2024/01/16 06:53:54;;;;;;;12.17;2.83;;;0.00;99.90;;;;;;5056887;28;20179;-48
2024/01/16 06:56:20;;;;;;;7.17;3.00;;;-0.10;99.90;;;;;;5057041;28;20213;-49
2024/01/16 06:58:46;;;;;;;7.20;3.20;;;-0.10;99.90;;;;;;5056908;28;20175;-50
2024/01/16 07:01:16;;;;;;;7.40;3.60;;;-0.10;99.90;;;;;;5056877;28;20180;-49
2024/01/16 07:03:44;;;;;;;7.40;3.30;;;-0.10;99.90;;;;;;5056896;28;20197;-49
2024/01/16 07:06:10;;;;;;;7.63;3.77;;;-0.10;99.90;;;;;;5057223;28;20457;-50
2024/01/16 07:08:36;;;;;;;9.37;4.03;;;-0.10;99.90;;;;;;5056018;28;20425;-48
2024/01/16 07:11:01;;;;;;;8.63;3.67;;;-0.10;99.90;;;;;;5056802;28;20184;-49
2024/01/16 07:13:27;;;;;;;10.93;4.00;;;-0.10;99.90;;;;;;5056799;28;20179;-50
2024/01/16 07:15:52;;;;;;;8.00;3.23;;;-0.20;99.90;;;;;;5056673;28;20199;-50
2024/01/16 07:18:21;;;;;;;11.07;3.87;;;-0.20;99.90;;;;;;5056351;28;20778;-48
2024/01/16 07:20:49;;;;;;;8.77;4.47;;;-0.20;99.90;;;;;;5056429;28;20190;-48
2024/01/16 07:23:15;;;;;;;8.93;3.43;;;-0.20;99.90;;;;;;5056664;28;20237;-48
2024/01/16 07:25:40;;;;;;;12.13;4.03;;;-0.30;99.90;;;;;;5056464;28;20577;-43
2024/01/16 07:28:06;;;;;;;10.80;3.60;;;-0.40;99.90;;;;;;5056498;28;20197;-45
2024/01/16 07:30:32;;;;;;;12.97;3.73;;;-0.40;99.90;;;;;;5056725;28;20709;-45
2024/01/16 07:33:00;;;;;;;8.13;4.20;;;-0.50;99.90;;;;;;5056243;28;20195;-43
2024/01/16 07:35:26;;;;;;;8.73;4.23;;;-0.60;99.90;;;;;;5056057;28;20194;-44
2024/01/16 07:37:51;;;;;;;9.27;3.83;;;-0.60;99.90;;;;;;5056080;28;20175;-45
2024/01/16 07:40:17;;;;;;;8.77;3.70;;;-0.60;99.90;;;;;;5056050;28;20207;-45
2024/01/16 07:42:46;;;;;;;11.97;4.30;;;-0.70;99.90;;;;;;5056037;28;20168;-43
2024/01/16 07:45:15;;;;;;;8.90;4.20;;;-0.70;99.90;;;;;;5056311;28;20218;-43
2024/01/16 07:47:44;;;;;;;10.27;3.67;;;-0.70;99.90;;;;;;5054707;28;20414;-43
2024/01/16 07:50:15;;;;;;;11.93;3.43;;;-0.70;99.90;;;;;;5056431;28;20186;-43
2024/01/16 07:52:40;;;;;;;7.37;3.27;;;-0.70;99.90;;;;;;5055827;28;20177;-43
2024/01/16 07:55:07;;;;;;;13.50;3.37;;;-0.70;99.90;;;;;;5055235;28;20216;-44
2024/01/16 07:57:32;;;;;;;10.13;3.30;;;-0.80;99.90;;;;;;5061633;28;20201;-44
2024/01/16 08:00:05;;;;;;;7.87;3.23;;;-0.80;99.90;;;;;;5063632;28;20184;-43
2024/01/16 08:02:39;;;;;;;11.13;3.40;;;-0.90;99.90;;;;;;5055051;28;20188;-44
2024/01/16 08:05:05;;;;;;;7.40;3.10;;;-0.80;99.90;;;;;;5055434;28;20608;-44
2024/01/16 08:07:31;;;;;;;8.90;4.40;;;-0.90;99.90;;;;;;5055231;28;20596;-43
2024/01/16 08:09:57;;;;;;;9.33;4.13;;;-0.90;99.90;;;;;;5056058;28;20198;-45
2024/01/16 08:12:25;;;;;;;8.30;3.40;;;-0.90;99.90;;;;;;5055804;28;20647;-44
2024/01/16 08:14:52;;;;;;;10.40;4.13;;;-0.90;99.90;;;;;;5055675;28;20179;-44
2024/01/16 08:17:17;;;;;;;12.83;4.33;;;-0.90;99.90;;;;;;5054431;28;20223;-45
2024/01/16 08:20:35;;;;;;;6.17;3.80;;;-0.90;99.90;;;;;;5055730;28;20203;-45
2024/01/16 08:23:02;;;;;;;7.37;3.43;;;-0.90;99.90;;;;;;5055694;28;20184;-45
2024/01/16 08:25:31;;;;;;;12.70;3.90;;;-0.90;99.90;;;;;;5054591;28;20254;-45
2024/01/16 08:27:56;;;;;;;14.50;3.80;;;-0.90;99.90;;;;;;5056595;28;20233;-45
2024/01/16 08:30:28;;;;;;;11.93;4.73;;;-0.90;99.90;;;;;;5056744;28;20179;-45
2024/01/16 08:32:55;;;;;;;8.73;4.33;;;-0.90;99.90;;;;;;5054980;28;20230;-44
2024/01/16 08:35:29;;;;;;;9.70;4.17;;;-0.80;99.90;;;;;;5055185;28;20295;-43
2024/01/16 08:37:55;;;;;;;10.03;4.13;;;-0.80;99.90;;;;;;5055080;28;20159;-44
2024/01/16 08:40:22;;;;;;;7.33;3.50;;;-0.80;99.90;;;;;;5054974;28;20592;-44
2024/01/16 08:42:51;;;;;;;11.33;3.53;;;-0.80;99.90;;;;;;5054932;28;20180;-44
2024/01/16 08:46:06;;;;;;;12.40;3.97;;;-0.80;99.90;;;;;;5054673;28;20717;-44
2024/01/16 08:48:32;;;;;;;9.57;3.50;;;-0.80;99.90;;;;;;5054729;28;20179;-45
2024/01/16 08:51:01;;;;;;;13.20;4.47;;;-0.70;99.90;;;;;;5054293;28;20183;-45
2024/01/16 08:53:27;;;;;;;8.97;3.87;;;-0.70;99.90;;;;;;5054943;28;20171;-45
2024/01/16 08:55:53;;;;;;;11.50;4.53;;;-0.60;99.90;;;;;;5053280;28;20702;-45
2024/01/16 08:58:21;;;;;;;11.23;3.90;;;-0.60;99.90;;;;;;5054615;28;20421;-43
2024/01/16 09:00:50;;;;;;;9.63;3.90;;;-0.50;99.90;;;;;;5054787;28;20195;-47
2024/01/16 09:03:16;;;;;;;7.00;3.77;;;-0.50;99.90;;;;;;5054651;28;20182;-49
2024/01/16 09:05:43;;;;;;;9.93;4.87;;;-0.50;99.90;;;;;;5054578;28;20236;-48
2024/01/16 09:08:08;;;;;;;12.83;4.53;;;-0.50;99.90;;;;;;5054526;28;20596;-43
2024/01/16 09:10:37;;;;;;;11.00;4.00;;;-0.40;99.90;;;;;;5054568;28;20257;-44
2024/01/16 09:13:05;;;;;;;7.63;3.63;;;-0.40;99.90;;;;;;5054344;28;20183;-44
2024/01/16 09:15:32;;;;;;;14.23;4.40;;;-0.30;99.90;;;;;;5052887;28;20218;-45
2024/01/16 09:17:57;;;;;;;10.43;3.40;;;-0.30;99.90;;;;;;5054618;28;20671;-49
2024/01/16 09:20:28;;;;;;;5.83;3.43;;;-0.20;99.90;;;;;;5054196;28;20179;-43
2024/01/16 09:22:54;;;;;;;9.43;4.20;;;-0.20;99.90;;;;;;5054720;28;20172;-46
2024/01/16 09:25:27;;;;;;;11.33;4.30;;;-0.20;99.90;;;;;;5054068;28;20206;-44
2024/01/16 09:27:53;;;;;;;12.20;4.40;;;-0.10;99.90;;;;;;5053947;28;20173;-44
2024/01/16 09:30:19;;;;;;;6.60;3.23;;;-0.10;99.90;;;;;;5054214;28;20257;-48
2024/01/16 09:32:45;;;;;;;9.63;4.30;;;-0.10;99.90;;;;;;5054019;28;20595;-48
2024/01/16 09:35:11;;;;;;;6.87;3.87;;;-0.10;99.90;;;;;;5054534;28;20212;-48
2024/01/16 09:37:37;;;;;;;15.73;4.90;;;0.00;99.90;;;;;;5054145;28;20671;-48
2024/01/16 09:40:09;;;;;;;12.07;4.43;;;0.10;99.90;;;;;;5054180;28;20206;-48
2024/01/16 09:42:35;;;;;;;7.10;4.03;;;0.10;99.90;;;;;;5052896;28;20552;-49
2024/01/16 09:45:04;;;;;;;13.00;4.73;;;0.20;99.90;;;;;;5053625;28;20274;-49
2024/01/16 09:47:33;;;;;;;10.60;4.37;;;0.20;99.90;;;;;;5053945;28;20179;-44
2024/01/16 09:50:02;;;;;;;14.40;4.23;;;0.30;99.90;;;;;;5053530;28;20254;-44
2024/01/16 09:52:29;;;;;;;10.70;4.00;;;0.30;99.90;;;;;;5053626;28;20416;-50
2024/01/16 09:54:55;;;;;;;10.33;3.97;;;0.40;99.90;;;;;;5052337;28;20184;-50
2024/01/16 09:57:26;;;;;;;11.50;4.50;;;0.40;99.90;;;;;;5053477;28;20194;-50
2024/01/16 09:59:52;;;;;;;8.87;4.33;;;0.50;99.90;;;;;;5054073;28;20189;-45
2024/01/16 10:02:22;;;;;;;11.37;4.20;;;0.60;99.90;;;;;;5053273;28;20188;-45
2024/01/16 10:04:48;;;;;;;9.13;4.27;;;0.70;99.90;;;;;;5053488;28;20207;-45
2024/01/16 10:07:15;;;;;;;13.97;4.67;;;0.80;99.90;;;;;;5053597;28;20645;-45
2024/01/16 10:09:41;;;;;;;11.50;4.20;;;0.90;99.90;;;;;;5053633;28;20176;-45
2024/01/16 10:12:08;;;;;;;9.30;3.67;;;1.00;99.90;;;;;;5053389;28;20673;-44
2024/01/16 10:17:56;;;;;;;7.20;3.63;;;1.00;99.90;;;;;;5053302;28;20167;-43
2024/01/16 10:20:36;;;;;;;13.53;4.60;;;1.00;99.90;;;;;;5053259;28;20543;-45
2024/01/16 10:23:05;;;;;;;8.57;4.37;;;1.00;99.90;;;;;;5053243;28;20172;-45
2024/01/16 10:25:31;;;;;;;8.70;4.33;;;0.90;99.90;;;;;;5052939;28;20280;-44
2024/01/16 10:28:04;;;;;;;9.93;4.30;;;0.90;99.90;;;;;;5053759;28;20163;-44
2024/01/16 10:30:30;;;;;;;8.80;4.73;;;0.90;99.90;;;;;;5053646;28;20182;-45
2024/01/16 10:33:16;;;;;;;6.87;3.70;;;0.90;99.90;;;;;;5051895;28;20260;-45
2024/01/16 10:35:45;;;;;;;9.37;4.63;;;0.90;99.90;;;;;;5053951;28;20695;-49
2024/01/16 10:38:21;;;;;;;11.57;4.80;;;0.90;99.90;;;;;;5053042;28;20179;-51
2024/01/16 10:40:46;;;;;;;8.77;3.87;;;0.90;99.90;;;;;;5053535;28;20238;-49
2024/01/16 10:43:18;;;;;;;15.00;5.10;;;1.00;99.90;;;;;;5051997;28;20245;-48
2024/01/16 10:45:44;;;;;;;11.57;6.27;;;1.00;99.90;;;;;;5052769;28;20235;-48
2024/01/16 10:48:15;;;;;;;10.70;4.57;;;1.00;99.90;;;;;;5053164;28;20185;-49
2024/01/16 10:50:41;;;;;;;9.97;4.13;;;1.00;99.90;;;;;;5052820;28;20192;-48
2024/01/16 10:53:08;;;;;;;6.83;4.40;;;1.00;99.90;;;;;;5052976;28;20228;-49
2024/01/16 10:55:51;;;;;;;8.43;3.83;;;1.00;99.90;;;;;;5053173;28;20206;-49
2024/01/16 10:58:23;;;;;;;10.57;4.67;;;1.10;99.90;;;;;;5052048;28;20235;-50
2024/01/16 11:00:52;;;;;;;8.77;3.60;;;1.10;99.90;;;;;;5055122;28;20176;-48
2024/01/16 11:03:49;;;;;;;6.40;3.03;;;1.10;99.90;;;;;;5062557;28;20173;-50
2024/01/16 11:06:18;;;;;;;8.63;3.50;;;1.10;99.90;;;;;;5057036;28;20228;-49
2024/01/16 11:08:54;;;;;;;8.13;4.03;;;1.10;99.90;;;;;;5053116;28;20573;-48
2024/01/16 11:11:24;;;;;;;9.57;4.13;;;1.00;99.90;;;;;;5053229;28;20171;-48
2024/01/16 11:13:51;;;;;;;9.00;4.30;;;1.00;99.90;;;;;;5055462;28;20173;-49
2024/01/16 11:16:19;;;;;;;15.90;4.60;;;1.00;99.90;;;;;;5057427;28;20606;-49
2024/01/16 11:18:45;;;;;;;8.17;4.40;;;1.10;99.90;;;;;;5056685;28;20259;-48
2024/01/16 11:21:13;;;;;;;6.97;3.73;;;1.10;99.90;;;;;;5056428;28;20590;-48
2024/01/16 11:23:40;;;;;;;7.20;4.37;;;1.00;99.90;;;;;;5055245;28;20179;-48
2024/01/16 11:26:28;;;;;;;12.83;4.67;;;1.10;99.90;;;;;;5056408;28;20610;-48
2024/01/16 11:28:59;;;;;;;9.73;4.60;;;1.10;99.90;;;;;;5056728;28;20247;-49
2024/01/16 11:31:36;;;;;;;13.83;4.80;;;1.10;99.90;;;;;;5058129;28;20291;-47
2024/01/16 11:34:02;;;;;;;9.10;4.63;;;1.10;99.90;;;;;;5056039;28;20551;-49
2024/01/16 11:36:47;;;;;;;10.27;3.63;;;1.10;99.90;;;;;;5056034;28;20196;-49
2024/01/16 11:39:18;;;;;;;11.00;4.10;;;1.10;99.90;;;;;;5056447;28;20187;-50
2024/01/16 11:41:57;;;;;;;9.93;4.60;;;1.20;99.90;;;;;;5056316;28;20157;-48
2024/01/16 11:44:41;;;;;;;10.33;4.57;;;1.20;99.90;;;;;;5056032;28;20359;-48
2024/01/16 11:47:08;;;;;;;9.77;3.93;;;1.20;99.90;;;;;;5054554;28;20208;-49
2024/01/16 11:49:35;;;;;;;9.40;4.37;;;1.30;99.90;;;;;;5056183;28;20180;-49
2024/01/16 11:52:06;;;;;;;9.17;3.53;;;1.40;99.90;;;;;;5056085;28;20551;-48
2024/01/16 11:54:33;;;;;;;12.87;5.27;;;1.30;99.90;;;;;;5055158;28;20184;-43
2024/01/16 11:57:20;;;;;;;10.43;4.53;;;1.30;99.90;;;;;;5055652;28;20196;-45
2024/01/16 11:59:55;;;;;;;8.23;4.80;;;1.30;99.90;;;;;;5056067;28;20172;-44
2024/01/16 12:02:26;;;;;;;8.77;4.73;;;1.30;99.90;;;;;;5055978;28;20171;-44
2024/01/16 12:04:56;;;;;;;12.23;5.43;;;1.40;99.90;;;;;;5055771;28;20660;-44
2024/01/16 12:07:26;;;;;;;13.00;5.10;;;1.40;99.90;;;;;;5054419;28;20184;-45
2024/01/16 12:10:06;;;;;;;13.47;4.47;;;1.40;99.90;;;;;;5055722;28;20191;-46
2024/01/16 12:12:37;;;;;;;8.90;4.67;;;1.40;99.90;;;;;;5055803;28;20243;-45
2024/01/16 12:15:04;;;;;;;7.07;4.27;;;1.50;99.90;;;;;;5055422;28;20187;-46
2024/01/16 12:17:29;;;;;;;7.53;4.03;;;1.50;99.90;;;;;;5054426;28;20211;-44
2024/01/16 12:19:55;;;;;;;11.23;4.73;;;1.50;99.90;;;;;;5055612;28;20644;-44
2024/01/16 12:22:22;;;;;;;11.13;4.83;;;1.50;99.90;;;;;;5055534;28;20562;-44
2024/01/16 12:24:48;;;;;;;9.70;4.97;;;1.50;99.90;;;;;;5054269;28;20183;-45
2024/01/16 12:27:15;;;;;;;8.87;4.70;;;1.60;99.90;;;;;;5054169;28;20176;-45
2024/01/16 12:29:41;;;;;;;8.13;4.73;;;1.60;99.90;;;;;;5055565;28;20254;-45
2024/01/16 12:32:16;;;;;;;11.87;5.10;;;1.60;99.90;;;;;;5054199;28;20184;-44
2024/01/16 12:34:49;;;;;;;9.57;5.20;;;1.60;99.90;;;;;;5055807;28;20194;-43
2024/01/16 12:37:20;;;;;;;10.67;5.30;;;1.70;99.90;;;;;;5055261;28;20176;-44
2024/01/16 12:39:46;;;;;;;9.97;4.90;;;1.70;99.90;;;;;;5055667;28;20613;-45
2024/01/16 12:42:12;;;;;;;10.03;4.90;;;1.70;99.90;;;;;;5055074;28;20179;-46
2024/01/16 12:44:38;;;;;;;8.77;5.10;;;1.70;99.90;;;;;;5056084;28;20199;-45
2024/01/16 12:47:03;;;;;;;11.23;4.70;;;1.70;99.90;;;;;;5054776;28;20628;-45
2024/01/16 12:49:42;;;;;;;13.40;5.30;;;1.80;99.90;;;;;;5058757;28;20188;-44
2024/01/16 12:52:21;;;;;;;13.07;5.00;;;1.80;99.90;;;;;;5055280;28;20172;-44
2024/01/16 12:54:58;;;;;;;9.90;4.50;;;1.80;99.90;;;;;;5054959;28;20211;-44
2024/01/16 12:57:24;;;;;;;9.70;4.63;;;1.80;99.90;;;;;;5055254;28;20164;-44
2024/01/16 12:59:56;;;;;;;10.33;4.90;;;1.80;99.90;;;;;;5054872;28;20184;-44